Time;durP1;ratioP1;P1;durP2;ratioP2;P2;SDS_P1;SDS_P2;PMS_P1;PMS_P2;Temp;Humidity;BMP_temperature;BMP_pressure;BME280_temperature;BME280_humidity;BME280_pressure;Samples;Min_cycle;Max_cycle;Signal;HPM_P1;HPM_P2
2022/03/29 00:01:04;;;;;;;49.60;36.93;;;;;;;12.33;60.80;99740.09;5055320;28;20227;-58
2022/03/29 00:03:31;;;;;;;55.87;38.00;;;;;;;12.28;60.98;99740.88;5070059;28;20938;-58
2022/03/29 00:05:58;;;;;;;55.47;37.47;;;;;;;12.29;61.10;99748.63;5070372;28;20235;-58
2022/03/29 00:08:26;;;;;;;45.83;35.83;;;;;;;12.30;60.62;99742.66;5070108;28;20310;-58
2022/03/29 00:10:53;;;;;;;49.53;36.13;;;;;;;12.28;60.80;99740.88;5070045;28;20203;-58
2022/03/29 00:13:20;;;;;;;48.73;36.70;;;;;;;12.31;61.04;99739.19;5070045;28;20302;-58
2022/03/29 00:15:47;;;;;;;48.93;34.93;;;;;;;12.36;60.37;99734.97;5073498;28;20187;-58
2022/03/29 00:18:14;;;;;;;45.70;36.20;;;;;;;12.35;60.47;99730.69;5073341;28;20282;-58
2022/03/29 00:20:41;;;;;;;53.67;37.93;;;;;;;12.31;61.05;99735.75;5073579;28;20904;-57
2022/03/29 00:23:08;;;;;;;49.37;37.07;;;;;;;12.29;61.01;99737.47;5073280;28;20191;-58
2022/03/29 00:25:36;;;;;;;54.57;38.20;;;;;;;12.25;61.09;99733.13;5073250;28;20311;-58
2022/03/29 00:28:03;;;;;;;52.23;37.87;;;;;;;12.10;61.58;99704.56;5073154;28;20218;-58
2022/03/29 00:30:30;;;;;;;55.33;39.70;;;;;;;12.12;61.48;99728.63;5072950;28;20283;-58
2022/03/29 00:32:57;;;;;;;53.60;41.97;;;;;;;12.09;61.66;99728.59;5071923;28;20529;-58
2022/03/29 00:35:24;;;;;;;49.93;38.63;;;;;;;12.04;61.78;99730.22;5073335;28;20192;-58
2022/03/29 00:37:53;;;;;;;55.57;36.20;;;;;;;11.95;62.02;99740.44;5072760;28;20192;-58
2022/03/29 00:40:20;;;;;;;51.13;35.13;;;;;;;11.89;62.18;99724.88;5073202;28;20223;-57
2022/03/29 00:42:49;;;;;;;48.33;33.30;;;;;;;11.81;62.28;99720.47;5072857;28;20213;-58
2022/03/29 00:45:16;;;;;;;45.37;31.57;;;;;;;11.75;62.71;99722.09;5072998;28;20278;-57
2022/03/29 00:47:43;;;;;;;44.10;30.47;;;;;;;11.77;62.42;99715.25;5073070;28;20226;-58
2022/03/29 00:50:10;;;;;;;38.03;29.23;;;;;;;11.74;62.40;99717.78;5073239;28;20195;-58
2022/03/29 00:52:39;;;;;;;39.80;30.37;;;;;;;11.78;62.27;99711.84;5072655;28;20199;-58
2022/03/29 00:55:12;;;;;;;40.23;31.13;;;;;;;11.79;62.51;99706.72;5072868;28;20218;-58
2022/03/29 00:57:39;;;;;;;53.43;30.67;;;;;;;11.75;62.41;99710.09;5072680;28;20266;-58
2022/03/29 01:00:08;;;;;;;35.20;28.13;;;;;;;11.73;62.10;99704.03;5072735;28;20310;-58
2022/03/29 01:02:36;;;;;;;36.60;27.23;;;;;;;11.52;62.19;99659.94;5072671;28;20192;-58
2022/03/29 01:05:04;;;;;;;40.53;28.07;;;;;;;11.76;62.33;99700.66;5072519;28;20570;-57
2022/03/29 01:07:31;;;;;;;36.20;27.20;;;;;;;11.77;61.86;99697.25;5072418;28;20307;-58
2022/03/29 01:10:00;;;;;;;40.50;29.63;;;;;;;11.72;61.91;99693.75;5072552;28;20192;-57
2022/03/29 01:12:28;;;;;;;35.57;26.93;;;;;;;11.66;62.63;99689.34;5072811;28;20222;-58
2022/03/29 01:14:55;;;;;;;42.90;28.30;;;;;;;11.71;62.44;99682.56;5072419;28;21045;-58
2022/03/29 01:17:43;;;;;;;39.95;31.73;;;;;;;11.77;62.60;99679.22;5071468;28;20433;-58
2022/03/29 01:20:13;;;;;;;35.77;28.73;;;;;;;11.82;62.03;99677.56;5072466;28;20196;-58
2022/03/29 01:22:45;;;;;;;45.87;30.10;;;;;;;11.79;61.50;99672.38;5072102;28;20690;-59
2022/03/29 01:25:16;;;;;;;36.23;28.50;;;;;;;11.73;61.49;99680.88;5071319;28;20689;-60
2022/03/29 01:27:45;;;;;;;37.30;28.13;;;;;;;11.70;61.73;99669.69;5071859;28;20215;-60
2022/03/29 01:30:13;;;;;;;38.23;28.20;;;;;;;11.64;61.72;99665.28;5072142;28;20192;-59
2022/03/29 01:32:41;;;;;;;36.53;28.63;;;;;;;11.58;62.10;99657.47;5071957;28;20696;-59
2022/03/29 01:35:09;;;;;;;37.97;29.13;;;;;;;11.62;62.22;99653.25;5071903;28;20681;-59
2022/03/29 01:37:37;;;;;;;44.20;29.50;;;;;;;11.58;62.30;99644.59;5072006;28;20187;-59
2022/03/29 01:40:12;;;;;;;33.40;26.90;;;;;;;11.54;62.21;99640.25;5071607;28;20665;-59
2022/03/29 01:42:39;;;;;;;36.57;27.93;;;;;;;11.53;62.02;99648.81;5071849;28;20240;-60
2022/03/29 01:45:07;;;;;;;35.47;26.90;;;;;;;11.43;62.51;99640.91;5071588;28;20582;-59
2022/03/29 01:47:34;;;;;;;38.83;29.50;;;;;;;11.40;63.06;99633.19;5071434;28;20227;-60
2022/03/29 01:50:01;;;;;;;41.23;28.67;;;;;;;11.45;62.82;99634.13;5071382;28;20196;-60
2022/03/29 01:52:28;;;;;;;37.87;29.33;;;;;;;11.43;63.21;99638.34;5071611;28;20199;-59
2022/03/29 01:54:55;;;;;;;41.57;29.90;;;;;;;11.33;63.28;99632.22;5071391;28;20199;-59
2022/03/29 01:57:28;;;;;;;42.07;31.83;;;;;;;11.32;63.94;99627.91;5071277;28;20194;-60
2022/03/29 02:02:39;;;;;;;46.03;32.07;;;;;;;11.24;64.11;99614.06;5071322;28;20685;-60
2022/03/29 02:05:07;;;;;;;41.63;30.93;;;;;;;11.17;64.43;99613.13;5071056;28;20286;-60
2022/03/29 02:07:33;;;;;;;39.20;29.67;;;;;;;11.15;64.04;99609.63;5071213;28;20223;-59
2022/03/29 02:10:00;;;;;;;37.70;27.57;;;;;;;11.13;64.22;99603.63;5071233;28;20599;-61
2022/03/29 02:12:29;;;;;;;36.47;27.10;;;;;;;11.13;64.19;99610.47;5071076;28;20187;-61
2022/03/29 02:14:56;;;;;;;41.30;29.07;;;;;;;11.16;64.15;99606.25;5070745;28;20191;-60
2022/03/29 02:17:23;;;;;;;43.37;29.37;;;;;;;11.19;64.17;99605.41;5070316;28;20187;-60
2022/03/29 02:19:49;;;;;;;35.77;28.27;;;;;;;11.13;64.44;99603.63;5071028;28;20196;-60
2022/03/29 02:22:16;;;;;;;39.90;29.17;;;;;;;11.19;64.21;99603.72;5070839;28;20274;-60
2022/03/29 02:24:43;;;;;;;39.67;29.70;;;;;;;11.22;64.10;99593.47;5070924;28;20198;-58
2022/03/29 02:27:10;;;;;;;40.03;28.33;;;;;;;11.25;64.09;99598.69;5054529;28;20274;-57
2022/03/29 02:29:39;;;;;;;36.37;26.73;;;;;;;11.30;63.72;99597.84;5050669;28;20195;-57
2022/03/29 02:32:06;;;;;;;34.63;26.87;;;;;;;11.32;63.53;99593.63;5050852;28;20286;-58
2022/03/29 02:34:33;;;;;;;37.37;26.43;;;;;;;11.36;62.91;99590.25;5050585;28;20203;-58
2022/03/29 02:37:00;;;;;;;36.53;26.27;;;;;;;11.31;62.90;99591.88;5050661;28;20192;-58
2022/03/29 02:39:27;;;;;;;38.87;25.80;;;;;;;11.30;63.31;99591.00;5070626;28;20191;-58
2022/03/29 02:41:55;;;;;;;39.20;26.60;;;;;;;11.29;62.98;99596.16;5070595;28;20562;-58
2022/03/29 02:44:21;;;;;;;35.83;28.37;;;;;;;11.22;63.76;99600.31;5070403;28;20187;-58
2022/03/29 02:46:50;;;;;;;36.80;28.30;;;;;;;11.18;64.08;99594.25;5070601;28;20219;-60
2022/03/29 02:49:17;;;;;;;46.43;28.80;;;;;;;11.16;64.17;99587.38;5070560;28;20638;-58
2022/03/29 02:51:44;;;;;;;39.37;28.83;;;;;;;11.08;64.33;99588.97;5070357;28;20191;-57
2022/03/29 02:54:11;;;;;;;39.63;27.53;;;;;;;11.07;64.64;99576.97;5070334;28;20203;-57
2022/03/29 02:56:38;;;;;;;45.27;28.60;;;;;;;11.00;65.08;99581.13;5051947;28;20602;-57
2022/03/29 02:59:05;;;;;;;40.57;28.40;;;;;;;10.99;64.76;99571.69;5050017;28;20200;-57
2022/03/29 03:01:32;;;;;;;35.73;26.83;;;;;;;10.97;64.66;99568.22;5050530;28;20188;-57
2022/03/29 03:04:00;;;;;;;39.40;27.90;;;;;;;10.93;65.39;99573.31;5068488;28;20198;-58
2022/03/29 03:06:27;;;;;;;40.87;27.00;;;;;;;11.02;65.00;99566.59;5079447;28;20195;-57
2022/03/29 03:08:54;;;;;;;40.00;27.43;;;;;;;11.05;64.57;99569.22;5076702;28;20207;-58
2022/03/29 03:11:22;;;;;;;35.67;26.90;;;;;;;11.06;64.38;99562.38;5081040;28;20191;-60
2022/03/29 03:13:50;;;;;;;38.47;26.83;;;;;;;11.10;64.83;99558.97;5082428;28;20214;-60
2022/03/29 03:16:17;;;;;;;37.17;25.87;;;;;;;11.07;65.41;99569.25;5080536;28;20187;-60
2022/03/29 03:18:44;;;;;;;35.33;27.80;;;;;;;10.85;64.90;99537.19;5070856;28;20293;-60
2022/03/29 03:21:12;;;;;;;42.23;31.07;;;;;;;10.85;67.04;99564.59;5070175;28;20199;-59
2022/03/29 03:23:39;;;;;;;50.17;31.43;;;;;;;10.77;67.39;99561.06;5070489;28;20192;-60
2022/03/29 03:26:07;;;;;;;46.37;31.03;;;;;;;10.73;67.34;99555.00;5070257;28;20235;-60
2022/03/29 03:28:34;;;;;;;41.10;33.47;;;;;;;10.82;67.13;99567.13;5054236;28;20470;-60
2022/03/29 03:31:01;;;;;;;40.13;29.90;;;;;;;10.79;67.11;99565.38;5050188;28;20258;-60
2022/03/29 03:33:28;;;;;;;44.50;29.00;;;;;;;10.79;67.28;99569.66;5050355;28;20227;-60
2022/03/29 03:35:55;;;;;;;44.07;28.97;;;;;;;10.75;67.50;99570.41;5059360;28;20196;-60
2022/03/29 03:38:23;;;;;;;42.87;30.63;;;;;;;10.75;67.87;99567.84;5070338;28;20196;-60
2022/03/29 03:40:50;;;;;;;38.90;29.10;;;;;;;10.78;67.71;99571.34;5070133;28;20199;-58
2022/03/29 03:43:17;;;;;;;42.10;29.40;;;;;;;10.82;67.08;99569.69;5070315;28;20191;-58
2022/03/29 03:45:44;;;;;;;48.20;30.03;;;;;;;10.81;67.25;99567.94;5070216;28;20191;-58
2022/03/29 03:48:11;;;;;;;45.03;30.20;;;;;;;10.80;67.18;99571.34;5071314;28;20219;-59
2022/03/29 03:50:38;;;;;;;42.93;29.57;;;;;;;10.75;67.67;99570.41;5073778;28;20187;-58
2022/03/29 03:53:04;;;;;;;49.23;32.20;;;;;;;10.69;68.29;99576.31;5073676;28;20282;-60
2022/03/29 03:55:33;;;;;;;50.87;32.73;;;;;;;10.64;68.56;99571.13;5073452;28;20205;-61
2022/03/29 03:58:00;;;;;;;50.83;33.20;;;;;;;10.41;69.26;99581.84;5073923;28;20203;-60
2022/03/29 04:00:27;;;;;;;44.20;31.03;;;;;;;10.49;68.40;99582.84;5073416;28;20595;-60
2022/03/29 04:02:54;;;;;;;45.17;32.27;;;;;;;10.44;67.91;99581.88;5073656;28;20188;-60
2022/03/29 04:05:21;;;;;;;41.37;32.53;;;;;;;10.32;68.35;99585.09;5073114;28;20596;-60
2022/03/29 04:07:48;;;;;;;43.70;33.90;;;;;;;10.24;68.67;99570.38;5083375;28;20225;-60
2022/03/29 04:10:15;;;;;;;49.00;32.67;;;;;;;10.19;68.99;99582.28;5079538;28;20191;-61
2022/03/29 04:12:44;;;;;;;45.53;35.72;;;;;;;10.26;69.09;99571.25;5083153;28;20443;-60
2022/03/29 04:15:12;;;;;;;42.73;32.77;;;;;;;10.27;68.78;99573.00;5084155;28;20314;-61
2022/03/29 04:17:39;;;;;;;43.77;33.50;;;;;;;10.25;69.42;99566.94;5079876;28;20202;-61
2022/03/29 04:20:07;;;;;;;42.43;33.60;;;;;;;10.28;69.42;99572.16;5082536;28;20680;-60
2022/03/29 04:22:34;;;;;;;48.13;35.13;;;;;;;10.33;69.39;99575.69;5084042;28;20191;-60
2022/03/29 04:25:01;;;;;;;43.03;33.73;;;;;;;10.30;69.39;99561.06;5082114;28;20195;-62
2022/03/29 04:27:28;;;;;;;47.80;33.93;;;;;;;10.45;69.24;99574.19;5082148;28;20207;-61
2022/03/29 04:29:56;;;;;;;54.73;37.20;;;;;;;10.45;69.57;99565.63;5083520;28;20274;-61
2022/03/29 04:32:23;;;;;;;55.50;42.60;;;;;;;10.40;69.89;99573.25;5082180;28;20180;-61
2022/03/29 04:34:50;;;;;;;69.37;46.67;;;;;;;10.37;70.27;99568.06;5081905;28;20249;-60
2022/03/29 04:37:17;;;;;;;70.80;49.87;;;;;;;10.43;70.18;99582.72;5081215;28;20233;-60
2022/03/29 04:39:44;;;;;;;74.60;48.73;;;;;;;10.43;70.48;99570.75;5080755;28;20188;-60
2022/03/29 04:42:11;;;;;;;72.40;50.87;;;;;;;10.33;71.09;99579.09;5078223;28;20216;-60
2022/03/29 04:44:38;;;;;;;73.90;47.87;;;;;;;10.23;70.92;99573.78;5081088;28;20282;-61
2022/03/29 04:47:07;;;;;;;69.70;45.67;;;;;;;10.20;70.46;99568.56;5082885;28;20242;-62
2022/03/29 04:49:34;;;;;;;120.57;76.93;;;;;;;10.26;70.62;99573.84;5079117;28;20191;-61
2022/03/29 04:52:01;;;;;;;118.03;69.20;;;;;;;10.20;71.45;99583.97;5081480;28;20202;-58
2022/03/29 04:54:28;;;;;;;95.13;65.43;;;;;;;10.33;71.18;99578.25;5072533;28;20193;-57
2022/03/29 04:56:55;;;;;;;90.35;51.95;;;;;;;10.22;70.84;99583.16;5078075;28;20480;-59
2022/03/29 04:59:22;;;;;;;79.20;53.10;;;;;;;10.25;70.75;99583.22;5081395;28;20303;-59
2022/03/29 05:01:49;;;;;;;85.87;52.47;;;;;;;10.30;70.77;99583.34;5082295;28;20182;-59
2022/03/29 05:04:17;;;;;;;76.83;50.53;;;;;;;10.37;70.44;99574.91;5081028;28;20188;-58
2022/03/29 05:06:44;;;;;;;85.87;49.50;;;;;;;10.39;70.01;99576.66;5082112;28;20258;-58
2022/03/29 05:09:11;;;;;;;80.27;49.13;;;;;;;10.45;70.04;99574.19;5078529;28;20301;-58
2022/03/29 05:11:38;;;;;;;83.77;52.90;;;;;;;10.44;69.50;99561.31;5073830;28;20199;-58
2022/03/29 05:14:05;;;;;;;75.27;50.67;;;;;;;10.49;69.39;99563.13;5071772;28;20286;-58
2022/03/29 05:16:32;;;;;;;78.33;48.63;;;;;;;10.58;69.21;99571.00;5071382;28;20199;-58
2022/03/29 05:18:59;;;;;;;86.20;49.63;;;;;;;10.67;68.93;99562.59;5072103;28;20187;-58
2022/03/29 05:21:28;;;;;;;83.73;52.97;;;;;;;10.59;69.01;99567.59;5071635;28;20202;-59
2022/03/29 05:23:55;;;;;;;83.27;53.57;;;;;;;10.64;69.92;99568.53;5071663;28;20192;-58
2022/03/29 05:26:22;;;;;;;75.80;50.53;;;;;;;10.73;69.10;99572.97;5071575;28;20214;-59
2022/03/29 05:28:48;;;;;;;71.80;45.40;;;;;;;10.63;69.43;99576.22;5071819;28;20593;-58
2022/03/29 05:31:15;;;;;;;69.43;45.57;;;;;;;10.66;69.59;99573.69;5071780;28;20191;-58
2022/03/29 05:33:42;;;;;;;75.10;45.90;;;;;;;10.73;69.48;99582.38;5071372;28;20662;-58
2022/03/29 05:36:09;;;;;;;62.53;44.20;;;;;;;10.76;69.42;99582.44;5071467;28;20202;-59
2022/03/29 05:38:38;;;;;;;72.53;44.17;;;;;;;10.79;68.84;99583.38;5071508;28;20190;-58
2022/03/29 05:41:04;;;;;;;65.57;45.57;;;;;;;10.88;68.27;99578.34;5071204;28;20202;-58
2022/03/29 05:43:31;;;;;;;78.33;50.07;;;;;;;10.93;68.22;99583.59;5071369;28;20201;-58
2022/03/29 05:48:55;;;;;;;107.83;76.37;;;;;;;11.08;66.72;99576.97;5071216;28;20586;-59
2022/03/29 05:51:24;;;;;;;113.03;86.40;;;;;;;11.23;66.65;99581.50;5075650;28;20702;-58
2022/03/29 05:53:52;;;;;;;116.40;74.30;;;;;;;11.35;65.60;99565.34;5080782;28;20187;-58
2022/03/29 05:56:20;;;;;;;152.00;111.33;;;;;;;11.44;65.23;99579.22;5080543;28;20303;-58
2022/03/29 05:58:47;;;;;;;177.53;124.07;;;;;;;11.51;65.28;99583.59;5080421;28;20187;-58
2022/03/29 06:01:14;;;;;;;152.40;112.50;;;;;;;11.55;65.05;99574.22;5078734;28;20223;-59
2022/03/29 06:03:41;;;;;;;144.87;104.30;;;;;;;11.27;64.90;99516.38;5080144;28;21021;-59
2022/03/29 06:06:07;;;;;;;126.23;86.10;;;;;;;11.58;64.43;99549.41;5079928;28;20206;-59
2022/03/29 06:08:35;;;;;;;109.27;71.17;;;;;;;11.84;63.77;99571.19;5072947;28;21091;-58
2022/03/29 06:11:05;;;;;;;101.63;67.83;;;;;;;11.86;63.96;99573.81;5071462;28;20207;-57
2022/03/29 06:13:33;;;;;;;78.57;52.50;;;;;;;11.80;63.59;99578.88;5071045;28;20203;-58
2022/03/29 06:16:00;;;;;;;91.73;56.40;;;;;;;11.86;62.98;99565.22;5071028;28;20191;-58
2022/03/29 06:18:27;;;;;;;89.72;58.13;;;;;;;11.98;62.77;99563.63;5070161;28;20519;-58
2022/03/29 06:20:54;;;;;;;90.70;55.77;;;;;;;11.90;62.74;99567.84;5076315;28;20261;-58
2022/03/29 06:23:22;;;;;;;83.10;54.07;;;;;;;12.07;62.47;99563.75;5079474;28;20195;-57
2022/03/29 06:25:50;;;;;;;88.33;54.40;;;;;;;12.23;62.28;99567.34;5077338;28;20237;-57
2022/03/29 06:28:18;;;;;;;97.20;55.63;;;;;;;12.40;61.77;99563.25;5076428;28;20703;-58
2022/03/29 06:30:46;;;;;;;85.70;53.07;;;;;;;12.55;61.33;99555.69;5081085;28;20198;-59
2022/03/29 06:33:12;;;;;;;86.50;54.27;;;;;;;12.71;60.07;99551.50;5080843;28;20674;-59
2022/03/29 06:35:39;;;;;;;71.50;51.70;;;;;;;12.86;59.72;99549.91;5080834;28;20191;-59
2022/03/29 06:38:07;;;;;;;76.20;52.23;;;;;;;13.00;58.98;99550.88;5075689;28;20650;-58
2022/03/29 06:40:36;;;;;;;82.30;51.50;;;;;;;13.09;58.64;99551.84;5070582;28;20203;-58
2022/03/29 06:43:03;;;;;;;57.13;44.30;;;;;;;13.16;57.95;99551.88;5068207;28;20659;-59
2022/03/29 06:45:31;;;;;;;59.97;43.70;;;;;;;13.10;58.58;99554.44;5065601;28;20202;-58
2022/03/29 06:47:59;;;;;;;67.63;41.07;;;;;;;13.28;57.85;99546.81;5059417;28;20227;-58
2022/03/29 06:50:26;;;;;;;55.63;38.37;;;;;;;13.27;57.35;99539.03;5050381;28;20273;-59
2022/03/29 06:52:53;;;;;;;56.67;38.60;;;;;;;13.23;56.89;99506.34;5050283;28;20192;-58
2022/03/29 06:55:21;;;;;;;59.33;36.73;;;;;;;13.57;56.09;99532.34;5050021;28;20215;-58
2022/03/29 06:57:48;;;;;;;58.00;37.20;;;;;;;13.70;55.96;99535.84;5049816;28;20694;-58
2022/03/29 07:00:17;;;;;;;38.10;26.73;;;;;;;13.82;54.26;99541.03;5068482;28;20300;-58
2022/03/29 07:02:45;;;;;;;28.30;21.77;;;;;;;13.89;52.78;99544.53;5054464;28;20200;-58
2022/03/29 07:05:14;;;;;;;28.50;21.80;;;;;;;13.99;51.76;99543.69;5050234;28;20602;-57
2022/03/29 07:07:41;;;;;;;28.77;20.47;;;;;;;14.08;50.92;99549.78;5049915;28;20220;-58
2022/03/29 07:12:55;;;;;;;29.23;23.77;;;;;;;14.23;50.69;99533.41;5049569;28;20737;-58
2022/03/29 07:15:22;;;;;;;22.50;19.20;;;;;;;14.27;49.68;99534.28;5049614;28;20207;-58
2022/03/29 07:17:51;;;;;;;27.30;20.33;;;;;;;14.41;49.28;99532.63;5049629;28;20189;-58
2022/03/29 07:20:19;;;;;;;29.03;22.20;;;;;;;14.52;49.01;99533.50;5049728;28;20686;-58
2022/03/29 07:22:47;;;;;;;29.57;22.83;;;;;;;14.60;48.15;99518.88;5052214;28;20234;-57
2022/03/29 07:25:15;;;;;;;28.73;22.87;;;;;;;14.71;47.89;99518.00;5076377;28;20202;-57
2022/03/29 07:27:42;;;;;;;29.83;21.93;;;;;;;14.84;47.74;99515.41;5076133;28;20195;-59
2022/03/29 07:30:10;;;;;;;32.53;22.83;;;;;;;14.94;47.29;99517.13;5076552;28;20210;-58
2022/03/29 07:32:43;;;;;;;27.53;22.30;;;;;;;15.00;46.82;99515.38;5076290;28;20202;-58
2022/03/29 07:35:12;;;;;;;30.00;24.33;;;;;;;15.06;47.16;99519.69;5076271;28;20193;-59
2022/03/29 07:37:39;;;;;;;29.90;22.80;;;;;;;15.18;46.45;99509.34;5075952;28;20198;-59
2022/03/29 07:40:08;;;;;;;31.97;22.83;;;;;;;15.29;45.84;99508.44;5076205;28;20702;-59
2022/03/29 07:42:37;;;;;;;29.33;23.35;;;;;;;15.32;45.95;99507.56;5075723;28;20977;-58
2022/03/29 07:45:05;;;;;;;33.33;23.13;;;;;;;15.31;45.93;99500.66;5075653;28;20199;-58
2022/03/29 07:47:32;;;;;;;28.50;23.47;;;;;;;15.36;45.84;99501.50;5076254;28;20200;-58
2022/03/29 07:50:01;;;;;;;32.67;23.97;;;;;;;15.43;45.52;99500.66;5079545;28;20215;-58
2022/03/29 07:52:30;;;;;;;31.50;23.93;;;;;;;15.47;45.63;99496.31;5076858;28;20191;-59
2022/03/29 07:54:56;;;;;;;34.80;23.67;;;;;;;15.48;45.97;99498.94;5076144;28;20250;-59
2022/03/29 07:57:24;;;;;;;33.67;24.73;;;;;;;15.65;45.25;99496.28;5075487;28;20198;-59
2022/03/29 07:59:51;;;;;;;33.63;23.43;;;;;;;15.71;44.47;99484.13;5075658;28;20313;-58
2022/03/29 08:02:18;;;;;;;30.40;23.10;;;;;;;15.88;44.32;99484.94;5075992;28;20198;-58
2022/03/29 08:04:45;;;;;;;30.93;22.40;;;;;;;16.06;44.37;99476.19;5076017;28;20289;-58
2022/03/29 08:07:12;;;;;;;30.40;22.80;;;;;;;16.26;43.04;99482.09;5075953;28;20376;-58
2022/03/29 08:09:41;;;;;;;31.47;23.37;;;;;;;16.45;42.39;99488.03;5074574;28;21007;-59
2022/03/29 08:12:10;;;;;;;28.47;22.40;;;;;;;16.58;42.51;99478.44;5074596;28;20286;-58
2022/03/29 08:14:38;;;;;;;29.80;23.58;;;;;;;16.73;42.00;99484.34;5073720;28;20916;-58
2022/03/29 08:17:05;;;;;;;25.00;21.30;;;;;;;16.94;40.75;99479.00;5074559;28;20194;-58
2022/03/29 08:19:32;;;;;;;29.83;22.03;;;;;;;17.03;40.36;99473.69;5075372;28;20188;-59
2022/03/29 08:21:58;;;;;;;28.03;22.23;;;;;;;17.10;40.21;99459.78;5074817;28;20188;-59
2022/03/29 08:24:26;;;;;;;26.93;22.70;;;;;;;17.08;40.17;99460.69;5075431;28;20566;-57
2022/03/29 08:26:55;;;;;;;28.00;23.27;;;;;;;17.21;39.93;99464.00;5074868;28;20473;-58
2022/03/29 08:29:22;;;;;;;28.40;22.90;;;;;;;17.31;39.17;99457.81;5075469;28;20223;-59
2022/03/29 08:31:52;;;;;;;27.83;23.90;;;;;;;17.13;39.61;99451.09;5080975;28;20277;-58
2022/03/29 08:34:19;;;;;;;34.63;23.20;;;;;;;17.03;39.98;99442.53;5081710;28;20198;-57
2022/03/29 08:36:49;;;;;;;36.30;23.90;;;;;;;17.01;39.69;99439.09;5083104;28;20228;-60
2022/03/29 08:39:16;;;;;;;28.33;20.47;;;;;;;17.07;39.33;99441.66;5082023;28;20180;-60
2022/03/29 08:41:47;;;;;;;32.77;25.50;;;;;;;17.09;40.41;99434.69;5081348;28;20201;-60
2022/03/29 08:44:15;;;;;;;39.87;24.20;;;;;;;17.05;40.07;99437.34;5078920;28;20199;-61
2022/03/29 08:46:42;;;;;;;29.40;22.17;;;;;;;16.75;40.17;99430.75;5081757;28;20191;-60
2022/03/29 08:49:10;;;;;;;24.53;20.63;;;;;;;16.93;39.87;99419.28;5082770;28;20202;-60
2022/03/29 08:51:39;;;;;;;27.80;20.40;;;;;;;16.82;39.73;99415.94;5081864;28;20180;-60
2022/03/29 08:54:07;;;;;;;26.13;19.43;;;;;;;16.80;39.53;99410.78;5080447;28;20187;-60
2022/03/29 08:56:34;;;;;;;21.57;18.40;;;;;;;17.07;39.35;99405.28;5078724;28;20273;-60
2022/03/29 08:59:01;;;;;;;23.03;17.57;;;;;;;17.28;39.26;99409.38;5081530;28;20195;-58
2022/03/29 09:01:29;;;;;;;20.93;16.60;;;;;;;17.33;38.12;99412.75;5083203;28;20187;-58
2022/03/29 09:04:10;;;;;;;21.63;16.30;;;;;;;17.33;38.10;99401.53;5080233;28;20192;-59
2022/03/29 09:06:56;;;;;;;17.00;15.17;;;;;;;17.55;37.63;99397.81;5071810;28;20224;-59
2022/03/29 09:09:24;;;;;;;21.13;14.57;;;;;;;17.67;36.89;99389.84;5071670;28;20196;-58
2022/03/29 09:11:53;;;;;;;17.97;14.73;;;;;;;17.62;37.12;99381.25;5071669;28;20192;-59
2022/03/29 09:14:20;;;;;;;16.73;13.60;;;;;;;17.74;37.33;99375.91;5071803;28;20654;-61
2022/03/29 09:16:50;;;;;;;16.53;14.83;;;;;;;17.89;36.30;99372.19;5071492;28;20199;-60
2022/03/29 09:19:17;;;;;;;19.23;14.33;;;;;;;17.98;36.31;99372.06;5071202;28;20227;-59
2022/03/29 09:21:45;;;;;;;20.70;14.57;;;;;;;18.04;35.83;99359.84;5071703;28;20192;-60
2022/03/29 09:24:15;;;;;;;20.00;16.00;;;;;;;18.03;36.43;99358.09;5071464;28;20192;-60
2022/03/29 09:26:45;;;;;;;14.17;12.73;;;;;;;17.61;35.30;99292.06;5071445;28;20199;-61
2022/03/29 09:29:16;;;;;;;18.47;13.50;;;;;;;18.11;35.51;99352.78;5071223;28;20219;-61
2022/03/29 09:31:45;;;;;;;17.20;13.50;;;;;;;18.28;34.92;99346.41;5071399;28;20205;-61
2022/03/29 09:34:18;;;;;;;15.53;13.50;;;;;;;18.39;34.49;99340.16;5076925;28;20369;-61
2022/03/29 09:36:48;;;;;;;20.33;13.73;;;;;;;18.39;34.82;99341.03;5078322;28;20207;-60
2022/03/29 09:39:33;;;;;;;23.50;14.63;;;;;;;18.38;33.98;99334.09;5071147;28;20646;-60
2022/03/29 09:42:01;;;;;;;14.10;12.07;;;;;;;18.47;33.53;99331.34;5071224;28;20290;-60
2022/03/29 09:44:40;;;;;;;16.77;13.30;;;;;;;18.62;33.58;99330.25;5070742;28;20196;-60
2022/03/29 09:47:08;;;;;;;20.70;14.50;;;;;;;18.75;33.89;99318.69;5070577;28;20202;-61
2022/03/29 09:49:54;;;;;;;19.60;13.90;;;;;;;18.80;34.23;99314.25;5070834;28;20219;-61
2022/03/29 09:52:23;;;;;;;21.40;15.18;;;;;;;18.99;34.04;99313.00;5069800;28;20498;-61
2022/03/29 09:55:13;;;;;;;13.90;11.90;;;;;;;19.19;33.17;99310.84;5070770;28;20241;-61
2022/03/29 09:57:43;;;;;;;21.67;14.53;;;;;;;19.26;33.44;99307.19;5070692;28;20191;-60
2022/03/29 10:00:11;;;;;;;20.13;15.00;;;;;;;19.29;32.91;99301.06;5070336;28;20224;-60
2022/03/29 10:02:41;;;;;;;18.90;14.57;;;;;;;19.42;33.22;99297.31;5064729;28;20204;-60
2022/03/29 10:05:11;;;;;;;21.30;15.47;;;;;;;19.34;33.40;99291.41;5065944;28;20192;-61
2022/03/29 10:07:44;;;;;;;20.97;15.70;;;;;;;19.39;33.56;99281.78;5070978;28;20199;-60
2022/03/29 10:10:12;;;;;;;19.10;16.17;;;;;;;19.47;33.14;99279.84;5059437;28;20259;-60
2022/03/29 10:12:40;;;;;;;25.60;15.87;;;;;;;19.54;33.24;99277.94;5050892;28;20535;-61
2022/03/29 10:15:08;;;;;;;19.60;15.33;;;;;;;19.34;33.31;99271.41;5050429;28;20227;-61
2022/03/29 10:17:35;;;;;;;20.70;15.37;;;;;;;19.08;33.47;99271.16;5050191;28;20196;-61
2022/03/29 10:20:05;;;;;;;20.93;15.83;;;;;;;19.01;33.51;99264.34;5050088;28;20685;-61
2022/03/29 10:22:37;;;;;;;22.57;16.07;;;;;;;19.13;33.29;99263.22;5050179;28;20617;-62
2022/03/29 10:25:05;;;;;;;16.80;14.77;;;;;;;19.20;33.48;99250.03;5050315;28;20702;-61
2022/03/29 10:27:32;;;;;;;19.00;14.57;;;;;;;19.43;33.27;99246.94;5050007;28;20199;-59
2022/03/29 10:29:59;;;;;;;22.63;14.67;;;;;;;19.62;32.51;99248.22;5050131;28;20543;-61
2022/03/29 10:32:32;;;;;;;22.43;15.70;;;;;;;19.55;32.82;99244.06;5050263;28;20192;-60
2022/03/29 10:35:08;;;;;;;20.43;15.57;;;;;;;19.48;32.95;99234.66;5063212;28;20200;-61
2022/03/29 10:37:56;;;;;;;20.90;14.93;;;;;;;19.35;32.84;99228.84;5069995;28;20195;-59
2022/03/29 10:40:40;;;;;;;19.07;15.83;;;;;;;19.40;32.82;99224.41;5069802;28;20208;-60
2022/03/29 10:43:26;;;;;;;23.13;14.63;;;;;;;19.64;32.98;99219.53;5070013;28;20180;-59
2022/03/29 10:45:53;;;;;;;21.37;14.97;;;;;;;19.82;32.46;99224.25;5062807;28;20203;-59
2022/03/29 10:48:20;;;;;;;25.80;16.20;;;;;;;19.80;32.41;99216.50;5050167;28;20223;-59
2022/03/29 10:50:59;;;;;;;18.97;15.13;;;;;;;19.93;32.27;99217.03;5050303;28;20200;-59
2022/03/29 10:53:30;;;;;;;20.70;15.03;;;;;;;20.12;32.03;99202.59;5050080;28;20245;-58
2022/03/29 10:56:23;;;;;;;18.80;13.93;;;;;;;20.34;32.00;99200.28;5050322;28;20302;-59
2022/03/29 10:59:15;;;;;;;18.80;15.37;;;;;;;20.54;31.72;99198.84;5049066;28;20330;-58
2022/03/29 11:01:43;;;;;;;21.70;14.00;;;;;;;20.53;30.91;99194.50;5050089;28;20181;-59
2022/03/29 11:04:19;;;;;;;20.27;14.60;;;;;;;20.46;30.87;99166.84;5049812;28;20280;-59
2022/03/29 11:07:14;;;;;;;19.93;13.57;;;;;;;20.64;30.77;99183.75;5050437;28;20198;-59
2022/03/29 11:09:46;;;;;;;22.70;15.03;;;;;;;20.70;31.03;99180.97;5050043;28;20289;-60
2022/03/29 11:12:40;;;;;;;21.97;14.60;;;;;;;20.78;30.99;99172.91;5049970;28;20363;-59
2022/03/29 11:15:46;;;;;;;17.20;14.73;;;;;;;20.82;30.65;99169.31;5060635;28;20203;-59
2022/03/29 11:18:49;;;;;;;17.30;13.80;;;;;;;20.99;30.50;99164.41;5059114;28;20211;-59
2022/03/29 11:21:34;;;;;;;23.93;13.80;;;;;;;21.16;30.00;99160.41;5049946;28;20210;-58
2022/03/29 11:24:03;;;;;;;23.00;14.73;;;;;;;21.30;29.90;99156.47;5060192;28;20215;-59
2022/03/29 11:26:34;;;;;;;20.33;14.13;;;;;;;21.12;29.50;99114.34;5070336;28;20188;-61
2022/03/29 11:29:02;;;;;;;19.67;13.83;;;;;;;21.42;29.17;99150.88;5063125;28;20203;-60
2022/03/29 11:31:38;;;;;;;22.57;14.13;;;;;;;;;;5059794;28;20195;-59
2022/03/29 11:34:06;;;;;;;23.27;14.37;;;;;;;21.24;29.40;99105.25;5065743;28;20210;-59